Time;durP1;ratioP1;P1;durP2;ratioP2;P2;SDS_P1;SDS_P2;PMS_P1;PMS_P2;Temp;Humidity;BMP_temperature;BMP_pressure;BME280_temperature;BME280_humidity;BME280_pressure;Samples;Min_cycle;Max_cycle;Signal;HPM_P1;HPM_P2
2022/08/30 00:03:13;;;;;;;110.07;104.00;;;;;;;19.98;65.66;96937.03;5040372;28;20552;-66
2022/08/30 00:05:39;;;;;;;84.43;79.80;;;;;;;19.79;66.46;96939.59;5054020;28;20614;-66
2022/08/30 00:08:04;;;;;;;67.45;63.78;;;;;;;19.84;66.24;96939.53;5037999;28;20329;-66
2022/08/30 00:10:30;;;;;;;74.18;69.95;;;;;;;19.97;65.69;96934.63;5034122;28;20623;-66
2022/08/30 00:12:56;;;;;;;59.38;55.95;;;;;;;19.95;65.40;96934.13;5034914;28;20195;-67
2022/08/30 00:15:22;;;;;;;51.50;48.63;;;;;;;19.97;65.30;96942.63;5051853;28;20635;-66
2022/08/30 00:17:48;;;;;;;51.17;48.05;;;;;;;20.07;64.73;96940.63;5053755;28;20170;-66
2022/08/30 00:20:17;;;;;;;33.83;31.67;;;;;;;20.02;64.99;96945.22;5052958;28;20193;-66
2022/08/30 00:22:43;;;;;;;34.03;31.85;;;;;;;19.90;64.60;96943.75;5053135;28;20531;-66
2022/08/30 00:25:09;;;;;;;31.92;29.83;;;;;;;19.96;64.51;96946.34;5053471;28;20192;-66
2022/08/30 00:27:35;;;;;;;33.90;31.70;;;;;;;19.99;64.79;96948.47;5049738;28;20590;-66
2022/08/30 00:30:00;;;;;;;38.35;35.72;;;;;;;19.93;64.78;96943.19;5033072;28;20175;-66
2022/08/30 00:32:26;;;;;;;41.47;38.50;;;;;;;19.82;65.58;96944.38;5035476;28;20206;-66
2022/08/30 00:34:53;;;;;;;37.08;34.90;;;;;;;19.85;65.48;96945.66;5034020;28;20214;-66
2022/08/30 00:37:19;;;;;;;54.28;50.90;;;;;;;19.96;65.30;96946.34;5033821;28;20190;-66
2022/08/30 00:39:44;;;;;;;58.40;54.70;;;;;;;19.74;66.30;96947.63;5053004;28;20586;-65
2022/08/30 00:42:11;;;;;;;67.18;63.47;;;;;;;19.57;67.21;96946.47;5053048;28;20272;-66
2022/08/30 00:44:37;;;;;;;77.38;73.15;;;;;;;19.61;67.54;96952.81;5053371;28;20200;-66
2022/08/30 00:47:03;;;;;;;76.60;72.20;;;;;;;19.42;68.27;96940.19;5053596;28;20261;-65
2022/08/30 00:49:29;;;;;;;67.93;63.75;;;;;;;19.56;67.34;96948.31;5051941;28;20190;-66
2022/08/30 00:51:56;;;;;;;71.20;67.03;;;;;;;19.62;67.14;96949.06;5034623;28;20203;-66
2022/08/30 00:54:24;;;;;;;67.30;63.47;;;;;;;19.60;66.70;96952.03;5033928;28;20194;-66
2022/08/30 00:56:50;;;;;;;54.10;50.95;;;;;;;19.64;66.64;96947.72;5044162;28;20174;-66
2022/08/30 00:59:17;;;;;;;39.58;37.15;;;;;;;19.63;66.60;96945.34;5052428;28;20194;-66
2022/08/30 01:01:42;;;;;;;35.58;33.30;;;;;;;19.65;66.60;96941.34;5025070;28;20535;-66
2022/08/30 01:04:09;;;;;;;21.52;20.00;;;;;;;19.65;66.65;96944.00;5038574;28;20190;-66
2022/08/30 01:06:35;;;;;;;15.93;14.75;;;;;;;19.57;67.11;96949.13;5048540;28;20312;-66
2022/08/30 01:09:02;;;;;;;12.18;11.27;;;;;;;19.46;67.51;96949.22;5043179;28;20214;-66
2022/08/30 01:11:30;;;;;;;12.70;11.57;;;;;;;19.36;67.67;96946.59;5036956;28;20611;-66
2022/08/30 01:13:56;;;;;;;13.40;12.27;;;;;;;19.34;67.97;96948.75;5036041;28;20196;-66
2022/08/30 01:16:24;;;;;;;12.52;11.63;;;;;;;19.24;68.64;96945.38;5046677;28;20182;-66
2022/08/30 01:18:53;;;;;;;12.48;11.57;;;;;;;19.28;68.47;96952.50;5040737;28;20181;-66
2022/08/30 01:21:38;;;;;;;16.52;15.32;;;;;;;19.18;68.88;96941.16;5032905;28;20183;-66
2022/08/30 01:24:06;;;;;;;24.58;22.98;;;;;;;19.18;69.01;96943.81;5033907;28;20235;-65
2022/08/30 01:26:33;;;;;;;28.10;26.13;;;;;;;19.31;68.10;96949.31;5032882;28;20174;-65
2022/08/30 01:29:03;;;;;;;26.85;25.15;;;;;;;19.58;66.78;96945.38;5032734;28;20206;-66
2022/08/30 01:31:28;;;;;;;29.45;27.55;;;;;;;19.58;67.02;96945.38;5037091;28;20209;-65
2022/08/30 01:33:53;;;;;;;34.38;32.17;;;;;;;19.43;67.16;96947.09;5052605;28;20261;-66
2022/08/30 01:36:19;;;;;;;54.90;51.60;;;;;;;19.43;67.53;96946.28;5052522;28;20480;-66
2022/08/30 01:38:52;;;;;;;49.03;46.05;;;;;;;19.41;67.58;96943.09;5052395;28;20260;-66
2022/08/30 01:41:21;;;;;;;74.40;70.15;;;;;;;19.33;67.66;96936.53;5020134;28;20219;-66
2022/08/30 01:43:48;;;;;;;101.35;95.65;;;;;;;19.34;68.02;96939.97;5051735;28;20572;-66
2022/08/30 01:46:15;;;;;;;103.72;97.88;;;;;;;19.11;69.91;96947.59;5052364;28;20606;-66
2022/08/30 01:48:41;;;;;;;93.38;88.25;;;;;;;19.11;69.85;96947.59;5037272;28;20262;-66
2022/08/30 01:51:10;;;;;;;115.80;109.43;;;;;;;19.20;69.38;96949.66;5050407;28;20272;-67
2022/08/30 01:53:36;;;;;;;76.43;71.82;;;;;;;19.06;70.55;96944.97;5052307;28;20264;-66
2022/08/30 01:56:02;;;;;;;111.40;105.13;;;;;;;19.14;69.21;96956.88;5052276;28;20213;-67
2022/08/30 01:58:27;;;;;;;108.40;101.85;;;;;;;19.06;69.47;96955.59;5038382;28;20179;-66
2022/08/30 02:00:53;;;;;;;105.40;99.60;;;;;;;19.11;69.41;96947.59;5038391;28;20185;-66
2022/08/30 02:03:18;;;;;;;93.43;87.85;;;;;;;19.06;69.63;96954.78;5051682;28;20178;-66
2022/08/30 02:05:44;;;;;;;69.28;65.20;;;;;;;18.97;70.33;96953.81;5051837;28;20700;-66
2022/08/30 02:08:09;;;;;;;83.22;78.47;;;;;;;19.05;69.52;96954.03;5040648;28;20230;-67
2022/08/30 02:10:35;;;;;;;71.07;67.00;;;;;;;19.13;69.27;96951.84;5051679;28;20235;-67
2022/08/30 02:13:00;;;;;;;36.97;34.47;;;;;;;19.03;70.05;96961.47;5050300;28;20209;-67
2022/08/30 02:15:26;;;;;;;17.02;15.70;;;;;;;18.91;70.69;96949.59;5048837;28;20182;-66
2022/08/30 02:17:51;;;;;;;12.77;11.82;;;;;;;18.68;72.36;96948.38;5031271;28;20189;-67
2022/08/30 02:20:17;;;;;;;29.33;27.47;;;;;;;18.62;73.40;96949.47;5032706;28;20232;-67
2022/08/30 02:22:42;;;;;;;52.90;49.78;;;;;;;18.58;74.49;96943.94;5033299;28;20190;-66
2022/08/30 02:25:08;;;;;;;45.53;42.85;;;;;;;18.69;74.25;96948.13;5032266;28;20278;-67
2022/08/30 02:27:34;;;;;;;35.75;33.53;;;;;;;18.54;75.52;96947.38;5050535;28;20558;-66
2022/08/30 02:29:59;;;;;;;32.53;30.40;;;;;;;18.53;75.66;96935.97;5051786;28;20230;-66
2022/08/30 02:32:25;;;;;;;40.23;37.83;;;;;;;18.45;76.39;96946.34;5051356;28;20239;-67
2022/08/30 02:34:50;;;;;;;17.43;15.83;;;;;;;18.46;76.46;96945.28;5051930;28;20644;-67
2022/08/30 02:37:16;;;;;;;14.90;13.70;;;;;;;18.29;77.51;96943.75;5051736;28;20374;-67
2022/08/30 02:39:41;;;;;;;14.20;12.83;;;;;;;18.16;78.41;96932.94;5051576;28;20519;-67
2022/08/30 02:42:06;;;;;;;15.00;13.63;;;;;;;18.15;78.60;96932.16;5045284;28;20183;-67
2022/08/30 02:44:32;;;;;;;15.50;14.35;;;;;;;18.28;77.97;96926.25;5048061;28;20702;-67
2022/08/30 02:46:57;;;;;;;20.47;18.97;;;;;;;18.06;79.38;96925.00;5051754;28;20205;-67
2022/08/30 02:49:23;;;;;;;18.05;16.75;;;;;;;18.21;78.08;96924.97;5051301;28;20251;-66
2022/08/30 02:51:48;;;;;;;21.13;19.73;;;;;;;18.11;79.23;96925.00;5015677;28;20234;-67
2022/08/30 02:54:18;;;;;;;24.13;22.43;;;;;;;18.01;79.86;96930.31;5034367;28;20209;-67
2022/08/30 02:56:45;;;;;;;24.63;23.00;;;;;;;18.12;79.24;96935.34;5035246;28;20627;-67
2022/08/30 02:59:10;;;;;;;37.73;35.10;;;;;;;18.02;80.00;96922.09;5035479;28;20182;-66
2022/08/30 03:01:37;;;;;;;31.37;29.10;;;;;;;18.12;78.88;96924.72;5024566;28;20177;-66
2022/08/30 03:04:03;;;;;;;30.05;28.13;;;;;;;18.23;78.37;96926.28;5055040;28;20268;-67
2022/08/30 03:06:28;;;;;;;33.40;31.13;;;;;;;18.12;78.79;96918.63;5045321;28;20274;-67
2022/08/30 03:08:54;;;;;;;33.70;31.43;;;;;;;18.21;77.89;96914.34;5035070;28;20620;-67
2022/08/30 03:11:21;;;;;;;36.17;33.63;;;;;;;18.10;79.12;96923.41;5034792;28;20195;-67
2022/08/30 03:13:46;;;;;;;40.97;38.40;;;;;;;18.06;79.88;96919.69;5051456;28;20685;-67
2022/08/30 03:16:12;;;;;;;40.70;38.03;;;;;;;18.07;79.67;96922.09;5035406;28;20175;-67
2022/08/30 03:18:38;;;;;;;39.40;37.00;;;;;;;17.92;80.89;96919.50;5035004;28;20192;-67
2022/08/30 03:21:10;;;;;;;29.83;27.50;;;;;;;17.92;80.89;96919.50;5045920;28;20190;-67
2022/08/30 03:23:35;;;;;;;21.63;19.87;;;;;;;17.92;81.33;96903.56;5054537;28;20178;-67
2022/08/30 03:26:00;;;;;;;16.20;15.00;;;;;;;17.83;81.97;96900.66;5036647;28;20630;-67
2022/08/30 03:28:26;;;;;;;13.57;12.57;;;;;;;17.79;82.94;96899.63;5052979;28;20186;-67
2022/08/30 03:30:51;;;;;;;18.20;16.70;;;;;;;17.77;83.42;96900.97;5054924;28;20223;-66
2022/08/30 03:33:17;;;;;;;17.63;16.27;;;;;;;17.71;83.31;96900.19;5046212;28;20206;-66
2022/08/30 03:35:42;;;;;;;20.13;18.63;;;;;;;17.71;83.77;96902.03;5034961;28;20178;-69
2022/08/30 03:38:08;;;;;;;19.37;17.87;;;;;;;17.74;83.94;96912.91;5050197;28;20281;-67
2022/08/30 03:40:34;;;;;;;17.63;16.33;;;;;;;17.66;84.23;96904.72;5036180;28;20182;-67
2022/08/30 03:43:00;;;;;;;17.13;16.02;;;;;;;17.57;84.76;96904.41;5034767;28;20178;-67
2022/08/30 03:45:25;;;;;;;19.03;17.70;;;;;;;17.64;84.45;96906.81;5034559;28;20183;-67
2022/08/30 03:47:51;;;;;;;24.30;22.77;;;;;;;17.51;85.16;96902.84;5047194;28;20243;-67
2022/08/30 03:50:16;;;;;;;45.63;42.70;;;;;;;17.43;85.61;96896.25;5054502;28;20234;-66
2022/08/30 03:52:41;;;;;;;81.27;76.53;;;;;;;17.49;85.77;96899.69;5035252;28;20205;-67
2022/08/30 03:55:07;;;;;;;115.87;109.13;;;;;;;17.48;86.17;96902.59;5034581;28;20279;-67
2022/08/30 03:57:33;;;;;;;80.63;75.97;;;;;;;17.45;87.24;96901.25;5043607;28;20614;-66
2022/08/30 03:59:58;;;;;;;49.27;46.10;;;;;;;17.43;87.71;96906.03;5041577;28;20227;-67
2022/08/30 04:02:24;;;;;;;25.17;23.13;;;;;;;17.35;88.64;96901.25;5030843;28;20198;-66
2022/08/30 04:04:49;;;;;;;20.50;18.97;;;;;;;17.40;89.48;96909.22;5052265;28;20185;-68
2022/08/30 04:07:16;;;;;;;22.27;20.43;;;;;;;17.23;90.69;96909.47;5038689;28;20186;-67
2022/08/30 04:09:41;;;;;;;27.20;25.33;;;;;;;17.23;91.56;96906.84;5052708;28;20253;-66
2022/08/30 04:12:07;;;;;;;73.77;69.17;;;;;;;17.23;91.95;96906.03;5053555;28;20275;-67
2022/08/30 04:14:32;;;;;;;124.00;116.87;;;;;;;17.19;92.54;96905.78;5050477;28;20186;-67
2022/08/30 04:16:58;;;;;;;139.23;131.27;;;;;;;17.16;93.30;96900.22;5033864;28;20179;-67
2022/08/30 04:19:24;;;;;;;113.77;107.20;;;;;;;17.20;92.73;96903.94;5044736;28;20575;-66
2022/08/30 04:21:49;;;;;;;101.87;95.80;;;;;;;17.21;92.79;96913.47;5054021;28;20182;-66
2022/08/30 04:24:14;;;;;;;82.07;77.20;;;;;;;17.10;93.14;96917.97;5053227;28;20181;-66
2022/08/30 04:26:40;;;;;;;63.80;59.23;;;;;;;17.08;94.09;96920.09;5052347;28;20173;-67
2022/08/30 04:29:05;;;;;;;52.07;48.77;;;;;;;17.13;93.83;96921.94;5053598;28;20181;-68
2022/08/30 04:31:31;;;;;;;45.77;42.40;;;;;;;17.12;94.24;96917.69;5053348;28;20646;-67
2022/08/30 04:33:56;;;;;;;43.60;40.67;;;;;;;17.10;94.54;96917.97;5037746;28;20590;-66
2022/08/30 04:36:21;;;;;;;49.90;46.33;;;;;;;17.07;95.02;96921.13;5049444;28;20190;-67
2022/08/30 04:38:47;;;;;;;62.03;58.03;;;;;;;17.08;95.24;96916.63;5053702;28;20197;-66
2022/08/30 04:41:15;;;;;;;57.33;53.60;;;;;;;17.05;95.38;96915.31;5053159;28;20213;-66
2022/08/30 04:43:42;;;;;;;55.27;51.43;;;;;;;17.08;95.21;96917.44;5053367;28;20228;-68
2022/08/30 04:46:08;;;;;;;57.20;53.30;;;;;;;17.07;96.06;96920.34;5052889;28;20285;-68
2022/08/30 04:48:35;;;;;;;55.97;52.07;;;;;;;17.09;95.47;96924.31;5033687;28;20274;-67
2022/08/30 04:51:07;;;;;;;56.53;52.93;;;;;;;17.08;95.83;96930.69;5040186;28;20594;-66
2022/08/30 04:53:33;;;;;;;57.47;53.17;;;;;;;17.15;95.19;96933.06;5048712;28;20197;-66
2022/08/30 04:55:58;;;;;;;59.27;55.53;;;;;;;17.19;94.94;96936.78;5053020;28;20791;-67
2022/08/30 04:58:24;;;;;;;56.73;52.97;;;;;;;17.14;95.52;96936.78;5050675;28;20177;-66
2022/08/30 05:00:49;;;;;;;56.60;52.97;;;;;;;17.36;94.00;96943.41;5023626;28;20515;-66
2022/08/30 05:03:16;;;;;;;61.23;57.53;;;;;;;17.42;93.71;96946.84;5034207;28;20210;-67
2022/08/30 05:05:46;;;;;;;66.30;62.07;;;;;;;17.55;92.77;96948.97;5031152;28;20261;-66
2022/08/30 05:08:14;;;;;;;38.77;35.97;;;;;;;17.73;90.83;96942.31;5040570;28;20229;-66
2022/08/30 05:10:43;;;;;;;35.37;33.07;;;;;;;17.90;89.27;96952.63;5052495;28;20661;-66
2022/08/30 05:13:08;;;;;;;70.77;66.53;;;;;;;18.05;87.80;96950.75;5051926;28;20285;-67
2022/08/30 05:15:35;;;;;;;78.00;73.47;;;;;;;18.30;86.13;96957.81;5052518;28;20264;-67
2022/08/30 05:18:01;;;;;;;29.00;27.20;;;;;;;18.20;86.79;96960.53;5052675;28;20178;-66
2022/08/30 05:20:26;;;;;;;40.47;37.77;;;;;;;18.31;86.27;96963.94;5050983;28;20189;-66
2022/08/30 05:22:52;;;;;;;44.30;41.50;;;;;;;18.68;83.80;96959.81;5052645;28;20264;-67
2022/08/30 05:25:26;;;;;;;26.88;25.00;;;;;;;18.67;83.45;96965.38;5051957;28;20263;-67
2022/08/30 05:27:52;;;;;;;35.42;33.03;;;;;;;19.26;80.70;96967.97;5017523;28;20634;-66
2022/08/30 05:30:19;;;;;;;35.33;33.03;;;;;;;19.51;78.92;96962.47;5033361;28;20240;-67
2022/08/30 05:32:45;;;;;;;45.55;42.60;;;;;;;19.52;79.10;96964.06;5049150;28;20210;-68
2022/08/30 05:35:13;;;;;;;35.70;33.35;;;;;;;19.60;78.20;96961.88;5052862;28;20257;-68
2022/08/30 05:37:39;;;;;;;35.30;32.88;;;;;;;19.66;77.92;96964.22;5052740;28;20185;-67
2022/08/30 05:40:06;;;;;;;28.30;26.33;;;;;;;19.68;77.17;96964.69;5051062;28;20178;-68
2022/08/30 05:42:31;;;;;;;26.75;24.88;;;;;;;19.78;77.06;96958.53;5052209;28;20288;-67
2022/08/30 05:44:57;;;;;;;23.17;21.58;;;;;;;19.71;77.26;96960.69;5035757;28;20275;-68
2022/08/30 05:47:22;;;;;;;25.13;23.33;;;;;;;19.74;77.15;96958.25;5042532;28;20228;-67
2022/08/30 05:49:48;;;;;;;21.60;20.10;;;;;;;19.57;78.35;96951.78;5039781;28;20192;-67
2022/08/30 05:52:16;;;;;;;33.45;31.30;;;;;;;19.02;81.83;96953.75;5032576;28;20202;-67
2022/08/30 05:54:43;;;;;;;47.20;44.15;;;;;;;19.22;81.45;96950.97;5032753;28;20678;-66
2022/08/30 05:57:09;;;;;;;22.08;20.38;;;;;;;19.11;82.74;96934.28;5042259;28;20535;-66
2022/08/30 05:59:34;;;;;;;37.65;35.35;;;;;;;19.11;83.17;96936.94;5032702;28;20183;-66
2022/08/30 06:01:59;;;;;;;23.40;21.80;;;;;;;18.97;84.02;96949.28;5030576;28;20190;-67
2022/08/30 06:04:25;;;;;;;27.33;25.25;;;;;;;19.25;82.38;96947.75;5031555;28;20183;-67
2022/08/30 06:06:51;;;;;;;45.35;42.53;;;;;;;19.17;82.13;96951.00;5032342;28;20228;-66
2022/08/30 06:09:17;;;;;;;52.80;49.53;;;;;;;19.29;82.05;96956.75;5032338;28;20687;-67
2022/08/30 06:11:43;;;;;;;25.08;23.42;;;;;;;19.36;82.31;96956.44;5039820;28;20221;-66
2022/08/30 06:14:09;;;;;;;20.35;18.73;;;;;;;20.22;77.72;96958.31;5032598;28;20210;-67
2022/08/30 06:16:37;;;;;;;25.02;23.23;;;;;;;20.42;75.92;96962.63;5047742;28;20623;-67
2022/08/30 06:19:04;;;;;;;155.00;146.23;;;;;;;20.75;74.22;96969.66;5033394;28;20581;-66
2022/08/30 06:21:36;;;;;;;217.02;205.30;;;;;;;21.05;72.06;96977.25;5045226;28;20190;-66
2022/08/30 06:24:03;;;;;;;227.95;215.30;;;;;;;20.95;72.41;96982.72;5051583;28;20541;-66
2022/08/30 06:26:28;;;;;;;199.32;188.18;;;;;;;21.04;71.85;96975.66;5052181;28;20228;-67
2022/08/30 06:28:55;;;;;;;142.20;133.95;;;;;;;21.35;70.34;96976.03;5046649;28;20178;-67
2022/08/30 06:31:23;;;;;;;121.15;114.15;;;;;;;21.63;69.75;96976.91;5036033;28;20218;-66
2022/08/30 06:33:49;;;;;;;124.00;117.13;;;;;;;20.19;75.63;96970.31;5036032;28;20216;-67
2022/08/30 06:36:18;;;;;;;140.93;133.20;;;;;;;20.69;74.00;96970.81;5046188;28;20182;-67
2022/08/30 06:38:45;;;;;;;181.73;172.05;;;;;;;20.37;74.39;96963.50;5035548;28;20221;-69
2022/08/30 06:41:13;;;;;;;124.40;117.65;;;;;;;20.37;75.24;96962.69;5033250;28;20183;-69
2022/08/30 06:43:39;;;;;;;179.65;169.75;;;;;;;20.72;73.00;96967.59;5032252;28;20699;-68
2022/08/30 06:46:07;;;;;;;171.80;162.38;;;;;;;21.03;71.83;96965.28;5036058;28;20183;-68
2022/08/30 06:48:32;;;;;;;248.30;234.70;;;;;;;20.44;73.66;96961.28;5035129;28;20537;-69
2022/08/30 06:50:58;;;;;;;356.83;335.92;;;;;;;21.58;68.41;96961.78;5040918;28;20189;-69
2022/08/30 06:53:24;;;;;;;362.83;340.08;;;;;;;21.70;67.97;96963.19;5043165;28;20233;-70
2022/08/30 06:56:08;;;;;;;168.25;157.90;;;;;;;21.50;66.74;96964.34;5053587;28;20178;-68
2022/08/30 06:58:35;;;;;;;126.55;118.90;;;;;;;21.72;66.81;96969.03;5042850;28;20178;-69
2022/08/30 07:01:01;;;;;;;119.97;113.05;;;;;;;22.27;65.05;96959.25;5053318;28;20228;-69
2022/08/30 07:03:27;;;;;;;153.20;144.45;;;;;;;21.98;65.72;96956.84;5044418;28;20186;-68
2022/08/30 07:05:53;;;;;;;268.38;254.20;;;;;;;20.54;69.84;96957.69;5039311;28;20186;-68
2022/08/30 07:08:19;;;;;;;84.82;79.97;;;;;;;21.44;67.18;96954.81;5034617;28;20605;-69
2022/08/30 07:10:45;;;;;;;72.38;68.03;;;;;;;22.17;64.89;96957.56;5034127;28;20236;-68
2022/08/30 07:13:10;;;;;;;235.10;222.52;;;;;;;21.91;64.42;96956.41;5034902;28;20245;-68
2022/08/30 07:15:41;;;;;;;295.75;278.98;;;;;;;21.85;64.52;96966.38;5035338;28;20616;-68
2022/08/30 07:20:50;;;;;;;222.40;210.05;;;;;;;21.50;66.45;96965.13;5035350;28;20166;-68
2022/08/30 07:23:16;;;;;;;212.23;200.80;;;;;;;21.32;68.13;96957.16;5034009;28;20186;-69
2022/08/30 07:25:41;;;;;;;205.90;195.07;;;;;;;22.29;65.20;96959.75;5036506;28;20183;-68
2022/08/30 07:28:08;;;;;;;206.38;194.80;;;;;;;22.33;63.41;96969.53;5051351;28;20313;-68
2022/08/30 07:30:34;;;;;;;204.88;193.40;;;;;;;21.81;65.66;96968.06;5054606;28;20178;-68
2022/08/30 07:32:59;;;;;;;174.00;164.35;;;;;;;22.58;63.06;96965.53;5043158;28;20191;-69
2022/08/30 07:35:25;;;;;;;98.95;93.18;;;;;;;23.36;60.73;96966.25;5039253;28;20512;-69
2022/08/30 07:37:51;;;;;;;92.50;87.25;;;;;;;23.63;58.30;96973.44;5053516;28;20638;-68
2022/08/30 07:40:16;;;;;;;109.07;102.97;;;;;;;23.17;59.77;96982.50;5037415;28;20202;-69
2022/08/30 07:42:42;;;;;;;170.13;160.73;;;;;;;22.59;61.09;96979.69;5034072;28;20799;-68
2022/08/30 07:45:09;;;;;;;270.98;255.70;;;;;;;22.82;61.15;96969.91;5035361;28;20178;-69
2022/08/30 07:47:34;;;;;;;343.95;324.15;;;;;;;22.88;61.03;96974.06;5034065;28;20210;-71
2022/08/30 07:50:00;;;;;;;281.55;266.48;;;;;;;22.72;61.94;96979.72;5047700;28;20221;-68
2022/08/30 07:52:26;;;;;;;401.70;378.48;;;;;;;22.79;61.52;96976.66;5047644;28;20205;-68
2022/08/30 07:54:53;;;;;;;472.70;444.48;;;;;;;22.91;61.21;96976.91;5045331;28;20206;-68
2022/08/30 07:57:19;;;;;;;617.00;578.88;;;;;;;23.03;60.82;96965.69;5034699;28;20174;-68
2022/08/30 07:59:45;;;;;;;427.70;404.05;;;;;;;23.10;62.04;96966.84;5022161;28;20531;-69
2022/08/30 08:02:10;;;;;;;477.40;450.38;;;;;;;22.90;62.78;96967.31;5020158;28;20182;-71
2022/08/30 08:04:35;;;;;;;632.20;591.55;;;;;;;22.72;62.98;96966.38;5031397;28;20186;-73
2022/08/30 08:07:01;;;;;;;671.55;627.83;;;;;;;23.05;61.56;96972.31;5036813;28;20670;-69
2022/08/30 08:09:26;;;;;;;681.22;636.72;;;;;;;23.54;60.63;96966.13;5040719;28;20222;-69
2022/08/30 08:11:52;;;;;;;620.10;581.22;;;;;;;23.60;60.46;96964.91;5053639;28;20210;-69
2022/08/30 08:14:17;;;;;;;374.33;351.95;;;;;;;23.90;58.77;96974.06;5047824;28;20580;-69
2022/08/30 08:16:45;;;;;;;155.02;146.25;;;;;;;23.85;59.11;96976.06;5033776;28;20546;-69
2022/08/30 08:19:11;;;;;;;135.30;127.38;;;;;;;23.44;61.03;96976.25;5033115;28;20252;-68
2022/08/30 08:21:36;;;;;;;148.57;140.30;;;;;;;23.13;61.55;96974.25;5033993;28;20178;-69
2022/08/30 08:24:02;;;;;;;162.63;153.63;;;;;;;23.43;60.76;96975.44;5044991;28;20681;-68
2022/08/30 08:26:28;;;;;;;187.07;176.35;;;;;;;23.15;62.07;96977.44;5033809;28;20175;-69
2022/08/30 08:28:53;;;;;;;172.68;162.50;;;;;;;23.74;61.03;96980.88;5036140;28;20210;-70
2022/08/30 08:31:24;;;;;;;144.30;136.20;;;;;;;23.21;61.66;96976.22;5019992;28;20619;-69
2022/08/30 08:33:50;;;;;;;160.38;151.20;;;;;;;23.53;61.08;96977.13;5048108;28;20178;-68
2022/08/30 08:36:16;;;;;;;156.43;146.90;;;;;;;23.45;62.26;96975.94;5053144;28;20276;-68
2022/08/30 08:38:41;;;;;;;142.63;134.20;;;;;;;22.84;63.67;96981.09;5049830;28;20194;-69
2022/08/30 08:41:20;;;;;;;212.55;199.43;;;;;;;23.16;62.83;96979.03;5039377;28;20190;-69
2022/08/30 08:43:45;;;;;;;374.15;349.98;;;;;;;23.10;62.00;96969.53;5036220;28;20171;-69
2022/08/30 08:46:17;;;;;;;358.83;335.98;;;;;;;23.46;62.24;96968.75;5034720;28;20228;-68
2022/08/30 08:48:51;;;;;;;413.35;387.25;;;;;;;23.32;62.17;96962.63;5034571;28;20681;-68
2022/08/30 08:54:19;;;;;;;482.73;451.70;;;;;;;23.91;60.51;96964.09;5037224;28;20237;-69
2022/08/30 08:56:44;;;;;;;413.02;386.58;;;;;;;23.94;60.53;96955.47;5027099;28;20162;-68
2022/08/30 08:59:10;;;;;;;256.25;239.85;;;;;;;24.01;60.17;96966.53;5024596;28;20576;-68
2022/08/30 09:01:39;;;;;;;211.43;198.20;;;;;;;24.26;59.59;96960.53;5027330;28;20281;-69
2022/08/30 09:04:11;;;;;;;158.23;148.43;;;;;;;24.00;60.11;96964.97;5047488;28;20209;-68
2022/08/30 09:07:00;;;;;;;284.70;268.75;;;;;;;24.22;58.76;96970.28;5036428;28;20205;-69
2022/08/30 09:09:30;;;;;;;230.88;218.27;;;;;;;24.52;58.26;96959.81;5034081;28;20325;-68
2022/08/30 09:11:56;;;;;;;315.13;297.80;;;;;;;24.51;58.79;96960.91;5039531;28;20239;-68
2022/08/30 09:14:25;;;;;;;380.35;358.55;;;;;;;24.09;59.60;96964.97;5051442;28;20181;-68
2022/08/30 09:16:53;;;;;;;383.60;362.27;;;;;;;24.45;58.70;96952.25;5032937;28;20303;-69
2022/08/30 09:19:39;;;;;;;325.83;307.67;;;;;;;24.25;58.52;96961.63;5037721;28;20186;-69
2022/08/30 09:22:13;;;;;;;386.88;364.92;;;;;;;24.63;58.75;96953.84;5042868;28;20547;-68
2022/08/30 09:24:46;;;;;;;221.35;208.90;;;;;;;24.08;59.35;96950.78;5037107;28;20614;-68
2022/08/30 09:27:22;;;;;;;322.77;304.60;;;;;;;24.43;58.97;96949.84;5052419;28;20295;-69
2022/08/30 09:29:51;;;;;;;110.68;104.55;;;;;;;24.83;57.20;96947.88;5033041;28;20170;-68
2022/08/30 09:32:53;;;;;;;72.80;68.60;;;;;;;24.84;56.10;96946.00;5032789;28;20206;-70
2022/08/30 09:35:42;;;;;;;277.85;262.33;;;;;;;24.31;56.05;96940.84;5034197;28;20198;-68
2022/08/30 09:38:09;;;;;;;328.10;309.77;;;;;;;24.67;55.48;96940.63;5032861;28;20250;-71
2022/08/30 09:40:44;;;;;;;323.90;305.92;;;;;;;25.02;54.79;96936.09;5033744;28;20230;-69
2022/08/30 09:43:16;;;;;;;243.48;229.63;;;;;;;25.25;53.70;96932.94;5048020;28;20629;-68
2022/08/30 09:45:46;;;;;;;324.92;305.77;;;;;;;24.42;54.95;96940.22;5040825;28;20229;-68
2022/08/30 09:48:27;;;;;;;365.40;344.65;;;;;;;24.73;54.53;96934.78;5051003;28;20182;-69
2022/08/30 09:51:07;;;;;;;477.83;449.60;;;;;;;24.79;53.23;96922.81;5041099;28;20201;-68
2022/08/30 09:53:36;;;;;;;455.23;428.77;;;;;;;25.16;52.88;96931.38;5032891;28;20206;-68
2022/08/30 09:56:04;;;;;;;582.90;546.65;;;;;;;25.33;52.90;96939.41;5039041;28;20338;-68
2022/08/30 09:58:51;;;;;;;355.42;335.10;;;;;;;25.29;52.83;96926.94;5042841;28;20532;-70
2022/08/30 10:01:26;;;;;;;387.75;365.67;;;;;;;25.62;52.40;96922.66;5025902;28;20197;-69
2022/08/30 10:04:10;;;;;;;268.98;254.27;;;;;;;25.72;51.73;96918.81;5033518;28;20189;-66
2022/08/30 10:06:54;;;;;;;228.55;216.02;;;;;;;25.22;51.49;96922.03;5045990;28;20171;-67
2022/08/30 10:09:25;;;;;;;185.55;175.68;;;;;;;25.61;50.49;96926.44;5036346;28;20233;-66
2022/08/30 10:12:18;;;;;;;149.70;141.50;;;;;;;25.41;50.51;96909.06;5036086;28;20186;-70
2022/08/30 10:14:54;;;;;;;284.40;268.75;;;;;;;25.05;51.17;96914.78;5036551;28;20265;-68
2022/08/30 10:17:44;;;;;;;166.07;157.43;;;;;;;25.05;50.28;96901.38;5036663;28;20205;-69
2022/08/30 10:20:22;;;;;;;291.45;275.85;;;;;;;25.29;51.33;96913.53;5036792;28;20187;-66
2022/08/30 10:22:55;;;;;;;120.90;114.45;;;;;;;24.71;50.76;96904.81;5036393;28;20203;-66
2022/08/30 10:25:20;;;;;;;129.90;123.18;;;;;;;25.08;50.94;96908.00;5045903;28;20166;-66
2022/08/30 10:27:56;;;;;;;79.30;74.50;;;;;;;25.49;50.78;96897.53;5053708;28;20271;-66
2022/08/30 10:30:22;;;;;;;119.65;113.25;;;;;;;25.62;50.30;96893.13;5055558;28;20556;-64
2022/08/30 10:32:58;;;;;;;168.73;159.85;;;;;;;25.72;49.89;96889.28;5054162;28;20192;-64
2022/08/30 10:35:32;;;;;;;184.65;174.60;;;;;;;25.73;50.07;96886.28;5027336;28;20187;-65
2022/08/30 10:38:16;;;;;;;108.07;102.30;;;;;;;25.81;49.24;96890.81;5052967;28;20259;-64
2022/08/30 11:07:00;;;;;;;30.88;29.02;;;;;;;26.29;45.37;96871.66;5102304;27;20538;-60
2022/08/30 11:09:40;;;;;;;15.85;14.93;;;;;;;26.44;41.67;96871.09;5090415;28;20238;-62
2022/08/30 11:12:31;;;;;;;30.38;28.60;;;;;;;26.47;40.63;96883.13;5109225;28;20259;-61
2022/08/30 11:14:58;;;;;;;31.63;29.88;;;;;;;26.15;43.35;96870.28;5070751;28;20652;-61
2022/08/30 11:17:25;;;;;;;9.90;9.20;;;;;;;26.82;43.96;96870.19;5082548;28;20179;-61
2022/08/30 11:19:55;;;;;;;9.98;9.27;;;;;;;27.19;43.78;96874.66;5080766;28;20281;-62
2022/08/30 11:22:26;;;;;;;12.30;11.10;;;;;;;26.69;45.29;96880.13;5085160;28;20274;-61
2022/08/30 11:25:05;;;;;;;17.10;15.77;;;;;;;26.99;44.54;96867.38;5081387;28;20322;-61
2022/08/30 11:27:50;;;;;;;7.53;7.03;;;;;;;26.12;46.01;96873.63;5079527;28;20187;-56
2022/08/30 11:30:25;;;;;;;38.97;36.70;;;;;;;26.14;46.25;96874.09;5070311;28;20177;-61
2022/08/30 11:33:22;;;;;;;45.80;43.15;;;;;;;26.35;46.06;96872.28;5070403;28;20617;-62
2022/08/30 11:35:51;;;;;;;33.90;32.00;;;;;;;27.02;44.45;96866.72;5060531;28;20177;-61
2022/08/30 11:38:27;;;;;;;20.90;19.70;;;;;;;27.67;42.14;96868.63;5069041;28;20184;-60
2022/08/30 11:40:55;;;;;;;23.08;21.60;;;;;;;27.57;42.13;96871.75;5070063;28;20196;-59
2022/08/30 11:43:32;;;;;;;27.10;25.50;;;;;;;27.39;42.58;96878.41;5069470;28;20214;-62
2022/08/30 11:46:26;;;;;;;26.45;24.85;;;;;;;27.75;41.93;96875.03;5075484;28;20197;-62
2022/08/30 11:49:11;;;;;;;62.08;58.72;;;;;;;28.11;40.99;96869.66;5080240;28;20666;-63
2022/08/30 11:52:07;;;;;;;105.85;100.25;;;;;;;27.23;42.11;96875.56;5068915;28;20645;-62